Time;durP1;ratioP1;P1;durP2;ratioP2;P2;SDS_P1;SDS_P2;PMS_P1;PMS_P2;Temp;Humidity;BMP_temperature;BMP_pressure;BME280_temperature;BME280_humidity;BME280_pressure;Samples;Min_cycle;Max_cycle;Signal;HPM_P1;HPM_P2
2022/12/14 00:00:38;;;;;;;5.40;5.00;;;;;;;2.29;69.88;100151.88;465711;114;922482;-78
2022/12/14 00:01:42;;;;;;;5.26;4.81;;;;;;;2.28;69.78;100152.89;465512;114;922506;-79
2022/12/14 00:02:47;;;;;;;4.56;4.26;;;;;;;2.27;69.93;100153.89;456010;116;922616;-78
2022/12/14 00:03:51;;;;;;;5.24;4.91;;;;;;;2.27;70.00;100158.43;465689;114;922541;-76
2022/12/14 00:04:54;;;;;;;4.88;4.54;;;;;;;2.29;69.88;100159.11;456692;116;922440;-77
2022/12/14 00:05:57;;;;;;;5.30;4.96;;;;;;;2.30;69.81;100158.11;465718;114;922570;-78
2022/12/14 00:07:00;;;;;;;5.28;4.89;;;;;;;2.30;69.78;100163.48;465687;114;923287;-79
2022/12/14 00:08:04;;;;;;;5.41;5.04;;;;;;;2.29;69.86;100168.02;456842;116;922594;-78
2022/12/14 00:09:07;;;;;;;5.15;4.83;;;;;;;2.30;69.92;100169.70;465629;114;922417;-77
2022/12/14 00:10:11;;;;;;;5.72;5.32;;;;;;;2.32;69.94;100177.59;456640;116;922571;-78
2022/12/14 00:11:15;;;;;;;5.50;5.10;;;;;;;2.33;69.93;100171.20;465727;114;922460;-78
2022/12/14 00:12:18;;;;;;;6.03;5.62;;;;;;;2.34;69.88;100179.11;465630;114;922482;-78
2022/12/14 00:13:21;;;;;;;6.04;5.64;;;;;;;2.34;69.82;100172.88;465729;114;930567;-76
2022/12/14 00:14:24;;;;;;;5.47;5.07;;;;;;;2.35;69.70;100183.48;456849;116;922633;-78
2022/12/14 00:15:27;;;;;;;5.36;5.01;;;;;;;2.34;69.68;100187.17;465690;114;922433;-78
2022/12/14 00:16:33;;;;;;;6.41;5.89;;;;;;;2.34;69.72;100191.72;456725;116;922619;-77
2022/12/14 00:17:36;;;;;;;6.41;5.99;;;;;;;2.33;69.60;100182.80;465524;114;922855;-78
2022/12/14 00:18:40;;;;;;;5.69;5.29;;;;;;;2.34;69.59;100192.56;465735;114;922422;-77
2022/12/14 00:19:42;;;;;;;6.11;5.71;;;;;;;2.34;69.59;100191.72;465665;114;922775;-77
2022/12/14 00:20:47;;;;;;;6.19;5.79;;;;;;;2.32;69.40;100194.56;465014;114;922501;-77
2022/12/14 00:21:51;;;;;;;6.26;5.84;;;;;;;2.33;69.43;100200.79;465692;114;923106;-78
2022/12/14 00:22:56;;;;;;;5.81;5.42;;;;;;;2.32;69.57;100194.56;456650;116;922469;-78
2022/12/14 00:23:59;;;;;;;6.06;5.66;;;;;;;2.32;69.58;100194.56;465653;114;922608;-78
2022/12/14 00:25:03;;;;;;;6.22;5.83;;;;;;;2.33;69.53;100198.94;465700;114;923000;-77
2022/12/14 00:26:10;;;;;;;6.60;6.15;;;;;;;2.34;69.45;100199.78;465713;114;922498;-79
2022/12/14 00:27:13;;;;;;;6.73;6.23;;;;;;;2.34;69.43;100194.41;465349;114;923265;-77
2022/12/14 00:28:16;;;;;;;5.85;5.47;;;;;;;2.35;69.44;100201.47;465662;114;922471;-78
2022/12/14 00:29:19;;;;;;;6.37;5.97;;;;;;;2.35;69.41;100206.85;456807;116;922595;-78
2022/12/14 00:30:22;;;;;;;6.37;5.97;;;;;;;2.36;69.41;100211.23;465670;114;923381;-78
2022/12/14 00:31:26;;;;;;;5.96;5.56;;;;;;;2.37;69.50;100212.91;465729;114;922643;-78
2022/12/14 00:32:29;;;;;;;6.16;5.77;;;;;;;2.37;69.42;100212.91;456795;116;923015;-77
2022/12/14 00:33:33;;;;;;;6.37;5.97;;;;;;;2.38;69.53;100206.50;465632;114;922485;-78
2022/12/14 00:34:36;;;;;;;6.84;6.42;;;;;;;2.39;69.47;100203.64;465534;113;930567;-78
2022/12/14 00:35:40;;;;;;;6.28;5.88;;;;;;;2.39;69.32;100213.56;456816;116;922446;-78
2022/12/14 00:36:43;;;;;;;6.18;5.76;;;;;;;2.39;69.23;100213.56;465627;114;922406;-79
2022/12/14 00:37:46;;;;;;;6.47;6.07;;;;;;;2.38;69.30;100217.25;465679;114;930389;-78
2022/12/14 00:38:51;;;;;;;6.57;6.08;;;;;;;2.38;69.13;100217.25;456635;116;922464;-78
2022/12/14 00:39:54;;;;;;;6.79;6.29;;;;;;;2.36;69.10;100217.45;465586;113;922530;-76
2022/12/14 00:40:57;;;;;;;6.56;6.15;;;;;;;2.34;69.10;100214.08;465731;114;922568;-78
2022/12/14 00:42:00;;;;;;;6.41;6.00;;;;;;;2.35;69.11;100222.99;456805;116;922560;-75
2022/12/14 00:43:04;;;;;;;6.31;5.91;;;;;;;2.35;69.09;100220.30;465741;114;922556;-78
2022/12/14 00:44:07;;;;;;;6.81;6.31;;;;;;;2.34;68.99;100213.23;456723;116;922489;-78
2022/12/14 00:45:10;;;;;;;6.14;5.74;;;;;;;2.32;68.99;100220.63;465678;113;922676;-77
2022/12/14 00:46:14;;;;;;;6.39;5.99;;;;;;;2.32;68.92;100226.00;465587;114;922501;-78
2022/12/14 00:47:17;;;;;;;6.34;5.94;;;;;;;2.30;68.91;100234.27;465597;114;930458;-77
2022/12/14 00:48:21;;;;;;;6.78;6.33;;;;;;;2.31;69.00;100232.42;456805;116;922610;-78
2022/12/14 00:49:25;;;;;;;6.53;6.02;;;;;;;2.30;68.91;100230.73;465474;113;922889;-77
2022/12/14 00:50:28;;;;;;;6.96;6.51;;;;;;;2.30;68.96;100228.89;465527;114;930584;-78
2022/12/14 00:51:31;;;;;;;5.82;5.42;;;;;;;2.32;69.08;100234.08;465589;114;930869;-79
2022/12/14 00:52:34;;;;;;;6.26;5.86;;;;;;;2.33;69.13;100238.45;465645;114;922696;-77
2022/12/14 00:53:38;;;;;;;6.61;6.19;;;;;;;2.36;69.07;100238.13;465590;114;922777;-77
2022/12/14 00:54:41;;;;;;;6.73;6.27;;;;;;;2.39;69.02;100237.77;465590;113;922772;-80
2022/12/14 00:55:46;;;;;;;6.14;5.76;;;;;;;2.39;68.97;100235.92;456612;116;923399;-78
2022/12/14 00:56:51;;;;;;;6.20;5.80;;;;;;;2.40;68.97;100240.30;465711;112;922501;-78
2022/12/14 00:57:54;;;;;;;6.29;5.89;;;;;;;2.42;68.98;100237.45;466912;112;922004;-77
2022/12/14 00:58:57;;;;;;;6.71;6.24;;;;;;;2.42;68.76;100234.77;472041;109;922060;-78
2022/12/14 01:00:01;;;;;;;6.95;6.49;;;;;;;2.42;68.73;100235.60;473880;109;922065;-79
2022/12/14 01:01:06;;;;;;;6.69;6.29;;;;;;;2.43;68.79;100239.10;473911;109;921968;-79
2022/12/14 01:02:09;;;;;;;6.48;6.07;;;;;;;2.42;68.69;100249.05;473648;109;922037;-78
2022/12/14 01:03:13;;;;;;;6.39;5.99;;;;;;;2.43;68.64;100245.33;473773;109;922588;-78
2022/12/14 01:04:16;;;;;;;6.54;6.04;;;;;;;2.43;68.67;100250.71;473676;112;922170;-78
2022/12/14 01:05:19;;;;;;;6.86;6.36;;;;;;;2.44;68.71;100249.70;473624;112;929880;-78
2022/12/14 01:06:22;;;;;;;6.53;6.12;;;;;;;2.46;68.73;100255.77;473771;112;922077;-78
2022/12/14 01:07:26;;;;;;;6.71;6.23;;;;;;;2.49;68.74;100260.80;473790;112;922439;-78
2022/12/14 01:08:34;;;;;;;6.42;6.01;;;;;;;2.51;68.77;100261.47;473746;112;923044;-78
2022/12/14 01:09:34;;;;;;;6.04;5.64;;;;;;;2.52;68.71;100259.62;473390;112;922018;-78
2022/12/14 01:10:39;;;;;;;6.22;5.82;;;;;;;2.54;68.55;100262.16;473155;112;922184;-78
2022/12/14 01:11:43;;;;;;;6.36;5.96;;;;;;;2.53;68.62;100269.39;473195;112;930217;-78
2022/12/14 01:12:46;;;;;;;6.38;5.97;;;;;;;2.54;68.56;100273.73;473087;112;922523;-77
2022/12/14 01:13:49;;;;;;;6.24;5.84;;;;;;;2.55;68.40;100275.42;473090;112;922382;-78
2022/12/14 01:14:52;;;;;;;5.49;5.14;;;;;;;2.55;68.30;100270.03;473370;112;922328;-78
2022/12/14 01:15:55;;;;;;;6.11;5.71;;;;;;;2.54;68.14;100278.30;473294;112;922480;-79
2022/12/14 01:16:58;;;;;;;6.49;6.05;;;;;;;2.53;68.11;100271.23;473729;112;922184;-78
2022/12/14 01:18:01;;;;;;;6.37;5.94;;;;;;;2.50;68.09;100277.78;473743;112;922431;-78
2022/12/14 01:19:04;;;;;;;6.32;5.92;;;;;;;2.48;67.95;100285.20;473778;112;922218;-78
2022/12/14 01:20:09;;;;;;;5.79;5.39;;;;;;;2.46;68.06;100287.22;473003;112;922674;-76
2022/12/14 01:21:18;;;;;;;6.47;6.07;;;;;;;2.45;68.25;100286.38;472578;112;930344;-77
2022/12/14 01:22:21;;;;;;;5.25;4.85;;;;;;;2.45;68.11;100291.75;462758;114;922513;-78
2022/12/14 01:23:25;;;;;;;5.40;5.10;;;;;;;2.44;67.96;100297.30;472843;112;922375;-77
2022/12/14 01:24:28;;;;;;;5.61;5.21;;;;;;;2.41;67.91;100286.88;472810;112;922678;-77
2022/12/14 01:25:31;;;;;;;5.26;4.86;;;;;;;2.39;67.62;100295.12;472610;112;930478;-79
2022/12/14 01:26:38;;;;;;;5.09;4.79;;;;;;;2.36;67.62;100292.78;472636;112;922436;-79
2022/12/14 01:27:42;;;;;;;5.62;5.21;;;;;;;2.36;67.44;100300.01;472458;112;922507;-78
2022/12/14 01:28:46;;;;;;;5.13;4.74;;;;;;;2.32;67.43;100302.17;472657;112;922817;-77
2022/12/14 01:29:49;;;;;;;5.12;4.82;;;;;;;2.31;67.45;100311.28;472417;112;922515;-77
2022/12/14 01:30:53;;;;;;;4.82;4.52;;;;;;;2.29;67.50;100304.38;472641;112;922541;-79
2022/12/14 01:31:56;;;;;;;5.56;5.16;;;;;;;2.28;67.52;100305.37;472655;112;922500;-79
2022/12/14 01:32:59;;;;;;;5.41;5.03;;;;;;;2.26;67.49;100316.30;472613;112;922444;-77
2022/12/14 01:34:03;;;;;;;5.49;5.09;;;;;;;2.25;67.53;100311.95;472575;112;922502;-79
2022/12/14 01:35:06;;;;;;;5.24;4.84;;;;;;;2.24;67.30;100315.64;472497;112;930494;-78
2022/12/14 01:36:16;;;;;;;4.86;4.56;;;;;;;2.21;67.17;100313.27;472587;112;922416;-79
2022/12/14 01:37:19;;;;;;;5.23;4.83;;;;;;;2.19;67.09;100322.53;472120;112;922443;-78
2022/12/14 01:38:22;;;;;;;4.97;4.57;;;;;;;2.16;67.15;100317.47;472557;112;922811;-77
2022/12/14 01:39:25;;;;;;;5.11;4.78;;;;;;;2.12;66.98;100324.20;472513;112;922467;-77
2022/12/14 01:40:28;;;;;;;4.63;4.33;;;;;;;2.09;67.07;100325.39;472503;112;922512;-77
2022/12/14 01:41:35;;;;;;;4.56;4.18;;;;;;;2.07;67.01;100330.92;472529;112;922532;-78
2022/12/14 01:42:38;;;;;;;4.88;4.58;;;;;;;2.04;66.90;100333.93;471991;112;923008;-78
2022/12/14 01:43:46;;;;;;;4.69;4.39;;;;;;;2.01;66.92;100339.66;468593;112;922698;-78
2022/12/14 01:44:57;;;;;;;4.87;4.57;;;;;;;2.00;67.00;100340.66;466987;113;922536;-78
2022/12/14 01:46:00;;;;;;;4.40;4.10;;;;;;;1.99;67.16;100338.97;467053;113;922527;-78
2022/12/14 01:47:10;;;;;;;4.37;4.09;;;;;;;1.99;67.13;100347.03;467140;113;922884;-78
2022/12/14 01:48:14;;;;;;;5.34;5.01;;;;;;;1.99;67.12;100351.56;466441;113;922895;-78
2022/12/14 01:49:33;;;;;;;4.49;4.19;;;;;;;1.97;66.80;100354.44;467236;113;922445;-78
2022/12/14 01:50:40;;;;;;;5.29;4.89;;;;;;;1.95;66.59;100353.75;467018;113;922594;-77
2022/12/14 01:51:46;;;;;;;4.72;4.42;;;;;;;1.90;66.62;100360.62;455204;116;922585;-78
2022/12/14 01:52:53;;;;;;;4.64;4.34;;;;;;;1.86;66.73;100364.66;455282;116;922528;-77
2022/12/14 01:53:59;;;;;;;5.18;4.88;;;;;;;1.84;66.67;100363.97;455295;116;922451;-77
2022/12/14 01:55:08;;;;;;;4.46;4.16;;;;;;;1.81;66.76;100356.25;455257;116;922631;-79
2022/12/14 01:56:12;;;;;;;4.94;4.61;;;;;;;1.78;66.93;100365.47;454913;116;922759;-79
2022/12/14 01:57:18;;;;;;;4.79;4.46;;;;;;;1.77;66.84;100371.00;455435;116;930462;-78
2022/12/14 01:58:25;;;;;;;4.27;3.97;;;;;;;1.77;66.91;100376.37;455294;116;922624;-77
2022/12/14 01:59:31;;;;;;;4.88;4.58;;;;;;;1.75;66.98;100373.03;455302;116;922996;-79
2022/12/14 02:00:36;;;;;;;4.44;4.14;;;;;;;1.73;66.90;100394.69;455287;116;922496;-77
2022/12/14 02:01:40;;;;;;;3.93;3.63;;;;;;;1.71;66.67;100390.49;455297;116;922410;-77
2022/12/14 02:02:53;;;;;;;4.14;3.82;;;;;;;1.69;66.44;100390.64;455334;116;922527;-78
2022/12/14 02:03:56;;;;;;;3.63;3.43;;;;;;;1.65;66.30;100383.92;455279;116;922883;-78
2022/12/14 02:05:02;;;;;;;3.98;3.77;;;;;;;1.61;66.26;100399.50;455356;116;922537;-78
2022/12/14 02:06:12;;;;;;;3.96;3.66;;;;;;;1.58;66.19;100386.41;455269;116;922538;-80
2022/12/14 02:07:17;;;;;;;3.66;3.46;;;;;;;1.55;66.18;100399.30;455014;116;922664;-78
2022/12/14 02:08:22;;;;;;;4.14;3.84;;;;;;;1.52;66.28;100391.58;455292;116;922469;-78
2022/12/14 02:09:28;;;;;;;4.06;3.76;;;;;;;1.51;66.22;100389.89;455257;116;923158;-77
2022/12/14 02:10:32;;;;;;;3.59;3.39;;;;;;;1.49;66.20;100395.42;455259;116;923392;-78
2022/12/14 02:11:48;;;;;;;4.05;3.78;;;;;;;1.48;66.33;100403.66;455376;116;922500;-79
2022/12/14 02:13:24;;;;;;;4.15;3.87;;;;;;;1.59;66.30;100403.37;486385;108;1203912;-77
2022/12/14 02:14:28;;;;;;;3.95;3.69;;;;;;;1.47;66.41;100399.28;479915;110;922868;-78
2022/12/14 02:15:32;;;;;;;3.87;3.63;;;;;;;1.49;66.60;100416.91;474543;112;922673;-78
2022/12/14 02:16:37;;;;;;;3.73;3.52;;;;;;;1.48;66.45;100415.25;464296;114;922604;-77
2022/12/14 02:17:45;;;;;;;4.36;4.06;;;;;;;1.47;66.38;100421.62;465021;112;922755;-79
2022/12/14 02:18:48;;;;;;;4.16;3.86;;;;;;;1.46;66.39;100424.46;474302;112;930579;-78
2022/12/14 02:19:51;;;;;;;3.59;3.38;;;;;;;1.45;66.47;100426.30;474556;109;922481;-78
2022/12/14 02:21:07;;;;;;;3.70;3.45;;;;;;;1.46;66.62;100429.83;474542;112;922874;-78
2022/12/14 02:22:47;;;;;;;4.57;4.27;;;;;;;1.46;66.52;100417.24;474360;112;922388;-78
2022/12/14 02:24:19;;;;;;;3.68;3.40;;;;;;;1.45;66.69;100426.30;474319;112;922802;-78
2022/12/14 02:25:38;;;;;;;4.19;3.89;;;;;;;1.44;66.72;100434.52;474374;112;923032;-77
2022/12/14 02:27:07;;;;;;;3.69;3.41;;;;;;;1.42;66.76;100437.38;474351;112;922644;-77
2022/12/14 02:28:20;;;;;;;4.44;4.14;;;;;;;1.41;66.75;100442.91;474352;112;922655;-78
2022/12/14 02:29:46;;;;;;;4.38;4.08;;;;;;;1.39;66.76;100442.20;470950;109;922502;-78
2022/12/14 02:31:03;;;;;;;4.41;4.08;;;;;;;1.38;66.83;100449.42;474393;112;922446;-78
2022/12/14 02:32:28;;;;;;;4.16;3.91;;;;;;;1.37;66.87;100449.61;446318;118;922641;-79
2022/12/14 02:33:49;;;;;;;4.07;3.81;;;;;;;1.35;66.83;100452.44;474343;112;922442;-77
2022/12/14 02:35:11;;;;;;;4.57;4.27;;;;;;;1.33;66.81;100454.43;474339;109;922501;-78
2022/12/14 02:36:26;;;;;;;4.62;4.32;;;;;;;1.31;67.04;100456.45;473674;112;922673;-77
2022/12/14 02:38:04;;;;;;;4.24;3.96;;;;;;;1.44;66.99;100461.38;488301;107;926565;-77
2022/12/14 02:39:30;;;;;;;4.74;4.44;;;;;;;1.30;66.90;100460.13;475114;111;922419;-77
2022/12/14 02:40:59;;;;;;;4.52;4.21;;;;;;;1.26;67.14;100461.45;466969;113;922411;-76
2022/12/14 02:42:17;;;;;;;5.34;4.99;;;;;;;1.23;67.14;100461.76;467032;113;922738;-79
2022/12/14 02:43:22;;;;;;;4.66;4.36;;;;;;;1.20;67.33;100460.25;466645;113;922508;-78
2022/12/14 02:44:45;;;;;;;4.88;4.58;;;;;;;1.20;67.35;100472.83;467053;113;922465;-79
2022/12/14 02:46:06;;;;;;;5.03;4.73;;;;;;;1.19;67.45;100473.83;467030;113;922644;-79
2022/12/14 02:47:28;;;;;;;5.08;4.69;;;;;;;1.20;67.56;100486.25;467130;113;922943;-78
2022/12/14 02:48:38;;;;;;;4.49;4.19;;;;;;;1.18;67.52;100490.93;466987;113;922932;-77
2022/12/14 02:50:04;;;;;;;4.69;4.39;;;;;;;1.18;67.69;100491.77;466939;112;922814;-78
2022/12/14 02:51:25;;;;;;;5.26;4.91;;;;;;;1.18;67.71;100496.30;466479;113;922758;-77
2022/12/14 02:52:38;;;;;;;4.47;4.17;;;;;;;1.18;67.75;100497.14;466481;113;922500;-77
2022/12/14 02:53:56;;;;;;;4.83;4.53;;;;;;;1.18;67.79;100499.83;466939;113;922506;-77
2022/12/14 02:55:09;;;;;;;5.15;4.85;;;;;;;1.21;67.89;100501.37;466303;112;922488;-80
2022/12/14 02:56:16;;;;;;;5.58;5.18;;;;;;;1.21;67.75;100506.75;466810;113;922527;-79
2022/12/14 02:57:22;;;;;;;4.90;4.60;;;;;;;1.22;67.81;100511.94;466978;113;922897;-78
2022/12/14 02:58:29;;;;;;;4.73;4.43;;;;;;;1.23;67.55;100513.62;467008;112;922519;-78
2022/12/14 02:59:33;;;;;;;5.39;5.01;;;;;;;1.23;67.22;100513.62;466845;112;923007;-77
2022/12/14 03:00:36;;;;;;;5.20;4.89;;;;;;;1.22;67.10;100519.99;467139;113;922513;-76
2022/12/14 03:01:40;;;;;;;4.99;4.69;;;;;;;1.21;67.10;100518.30;467068;113;930429;-78
2022/12/14 03:02:46;;;;;;;5.16;4.85;;;;;;;1.21;67.17;100525.55;466977;113;922909;-80
2022/12/14 03:03:50;;;;;;;4.78;4.48;;;;;;;1.22;67.26;100517.31;466954;113;922594;-78
2022/12/14 03:04:54;;;;;;;5.33;4.93;;;;;;;1.23;67.13;100527.05;467092;112;922902;-78
2022/12/14 03:06:00;;;;;;;5.01;4.61;;;;;;;1.23;67.07;100520.84;467089;113;922875;-78
2022/12/14 03:07:08;;;;;;;5.37;4.96;;;;;;;1.23;67.03;100523.52;466853;113;926208;-78
2022/12/14 03:08:14;;;;;;;5.44;5.04;;;;;;;1.23;67.03;100518.16;462049;113;922510;-79
2022/12/14 03:09:18;;;;;;;5.31;4.87;;;;;;;1.22;67.08;100522.67;466988;112;922592;-78
2022/12/14 03:10:39;;;;;;;5.54;5.17;;;;;;;1.23;67.24;100524.38;467121;113;922537;-78
2022/12/14 03:11:48;;;;;;;5.52;5.19;;;;;;;1.25;67.28;100532.28;466998;113;922985;-78
2022/12/14 03:12:55;;;;;;;5.07;4.77;;;;;;;1.27;67.26;100532.95;466846;113;922496;-77
2022/12/14 03:14:20;;;;;;;5.21;4.84;;;;;;;1.29;67.21;100532.80;467008;113;922528;-78
2022/12/14 03:15:25;;;;;;;5.36;5.06;;;;;;;1.29;67.27;100533.65;466896;113;922976;-77
2022/12/14 03:16:32;;;;;;;4.84;4.54;;;;;;;1.29;67.11;100525.59;466996;113;922510;-78
2022/12/14 03:17:37;;;;;;;5.06;4.76;;;;;;;1.30;66.90;100540.71;467010;113;922789;-77
2022/12/14 03:18:43;;;;;;;4.82;4.52;;;;;;;1.29;66.71;100551.59;466995;113;922436;-77
2022/12/14 03:19:56;;;;;;;4.88;4.46;;;;;;;1.27;66.55;100540.19;466394;112;922669;-77
2022/12/14 03:21:00;;;;;;;4.94;4.64;;;;;;;1.25;66.54;100534.97;462392;113;922747;-77
2022/12/14 03:22:07;;;;;;;5.36;4.96;;;;;;;1.22;66.62;100541.48;467032;113;922504;-77
2022/12/14 03:23:14;;;;;;;5.12;4.82;;;;;;;1.21;66.54;100541.66;465534;113;922529;-77
2022/12/14 03:24:21;;;;;;;5.59;5.20;;;;;;;1.21;66.80;100545.16;466922;112;922656;-79
2022/12/14 03:25:53;;;;;;;5.09;4.69;;;;;;;1.33;66.79;100544.91;477181;110;947287;-78
2022/12/14 03:27:02;;;;;;;4.93;4.63;;;;;;;1.22;66.73;100543.31;465484;114;922457;-78
2022/12/14 03:28:09;;;;;;;4.47;4.17;;;;;;;1.21;66.43;100555.90;465508;113;922505;-80
2022/12/14 03:29:15;;;;;;;4.11;3.87;;;;;;;1.20;66.35;100572.19;463351;113;922598;-78
2022/12/14 03:30:19;;;;;;;4.15;3.85;;;;;;;1.16;66.20;100568.11;455543;115;922508;-79
2022/12/14 03:31:40;;;;;;;4.48;4.18;;;;;;;1.12;65.96;100570.27;454377;116;922976;-79
2022/12/14 03:32:47;;;;;;;4.64;4.34;;;;;;;1.11;66.15;100568.57;457447;115;922912;-78
2022/12/14 03:33:53;;;;;;;4.59;4.29;;;;;;;1.08;66.24;100571.58;456810;115;922981;-79
2022/12/14 03:35:15;;;;;;;5.20;4.84;;;;;;;1.06;66.19;100580.77;457410;116;922545;-77
2022/12/14 03:36:24;;;;;;;4.86;4.56;;;;;;;1.05;66.12;100579.08;457479;115;922873;-78
2022/12/14 03:37:37;;;;;;;4.53;4.23;;;;;;;1.04;66.28;100589.00;457534;116;922989;-78
2022/12/14 03:38:44;;;;;;;4.59;4.29;;;;;;;1.04;66.45;100588.16;457451;116;922490;-77
2022/12/14 03:39:47;;;;;;;5.03;4.69;;;;;;;1.05;66.38;100587.98;457170;115;922818;-78
2022/12/14 03:41:03;;;;;;;4.62;4.32;;;;;;;1.05;66.25;100596.03;457588;115;922483;-78
2022/12/14 03:42:19;;;;;;;4.63;4.25;;;;;;;1.16;66.55;100603.86;472242;110;1204521;-78
2022/12/14 03:43:46;;;;;;;4.37;4.07;;;;;;;1.08;66.57;100611.01;464951;113;922970;-77
2022/12/14 03:45:09;;;;;;;4.79;4.49;;;;;;;1.10;66.43;100612.52;460810;113;923249;-79
2022/12/14 03:46:16;;;;;;;5.17;4.77;;;;;;;1.12;66.31;100613.23;457432;116;922924;-77
2022/12/14 03:47:41;;;;;;;5.40;5.00;;;;;;;1.12;66.23;100621.28;455729;115;922424;-78
2022/12/14 03:48:54;;;;;;;5.02;4.63;;;;;;;1.12;66.29;100621.28;457494;116;922517;-77
2022/12/14 03:50:03;;;;;;;4.83;4.53;;;;;;;1.13;66.41;100624.81;457426;114;922482;-78
2022/12/14 03:51:36;;;;;;;5.27;4.97;;;;;;;1.14;66.55;100623.83;457250;115;922529;-78
2022/12/14 03:52:48;;;;;;;4.69;4.39;;;;;;;1.14;66.48;100630.04;438709;116;922882;-78
2022/12/14 03:53:57;;;;;;;4.83;4.52;;;;;;;1.14;66.40;100634.56;457421;116;922904;-80
2022/12/14 03:55:10;;;;;;;5.03;4.67;;;;;;;1.13;66.26;100639.09;456970;114;922468;-77
2022/12/14 03:56:38;;;;;;;4.62;4.32;;;;;;;1.12;66.25;100634.71;457453;116;922595;-79
2022/12/14 03:58:06;;;;;;;4.73;4.43;;;;;;;1.12;66.33;100629.34;457488;116;922569;-77
2022/12/14 03:59:13;;;;;;;5.13;4.78;;;;;;;1.10;66.23;100630.51;457062;115;922987;-78
2022/12/14 04:00:20;;;;;;;4.77;4.47;;;;;;;1.08;66.33;100630.65;456494;115;922499;-78
2022/12/14 04:01:45;;;;;;;5.37;4.97;;;;;;;1.08;66.40;100633.34;457534;116;922448;-77
2022/12/14 04:03:08;;;;;;;4.92;4.54;;;;;;;1.09;66.53;100642.23;457416;115;922879;-79
2022/12/14 04:04:27;;;;;;;4.68;4.38;;;;;;;1.09;66.58;100635.03;457012;115;922374;-77
2022/12/14 04:05:33;;;;;;;4.89;4.59;;;;;;;1.11;66.63;100641.07;458257;115;922136;-76
2022/12/14 04:06:49;;;;;;;5.36;5.04;;;;;;;1.14;66.71;100651.52;458394;115;922218;-79
2022/12/14 04:07:59;;;;;;;5.27;4.87;;;;;;;1.17;66.78;100647.67;458124;115;922358;-79
2022/12/14 04:09:09;;;;;;;4.49;4.19;;;;;;;1.20;66.67;100644.70;458304;116;922452;-79
2022/12/14 04:18:55;;;;;;;5.20;4.80;;;;;;;1.21;66.24;100657.95;457696;116;922462;-78
2022/12/14 04:20:15;;;;;;;4.86;4.56;;;;;;;1.21;66.28;100665.19;457358;114;922321;-81
2022/12/14 04:21:37;;;;;;;4.72;4.42;;;;;;;1.20;66.11;100664.34;457663;116;922541;-81
2022/12/14 04:22:44;;;;;;;4.56;4.26;;;;;;;1.19;65.89;100667.17;450527;117;922812;-81
2022/12/14 04:26:42;;;;;;;4.32;4.03;;;;;;;1.12;65.47;100676.83;457623;116;922672;-81
2022/12/14 04:27:54;;;;;;;4.69;4.39;;;;;;;1.11;65.41;100675.98;457714;116;922548;-82
2022/12/14 04:30:32;;;;;;;4.32;4.02;;;;;;;1.09;65.07;100685.20;457794;116;923060;-80
2022/12/14 04:31:38;;;;;;;5.14;4.76;;;;;;;1.06;65.07;100677.42;457629;116;922413;-78
2022/12/14 04:32:57;;;;;;;4.58;4.28;;;;;;;1.03;64.98;100675.91;457650;116;922683;-81
2022/12/14 04:34:04;;;;;;;4.86;4.56;;;;;;;1.02;65.07;100689.47;457642;115;922532;-78
2022/12/14 04:35:26;;;;;;;4.84;4.52;;;;;;;1.01;65.16;100694.00;450520;115;922462;-80
2022/12/14 04:36:33;;;;;;;4.64;4.34;;;;;;;1.03;65.25;100691.17;452770;116;922677;-77
2022/12/14 04:37:40;;;;;;;4.67;4.37;;;;;;;1.04;65.29;100690.18;457640;116;923093;-80
2022/12/14 04:38:46;;;;;;;4.94;4.58;;;;;;;1.04;65.29;100685.66;457609;116;922438;-79
2022/12/14 04:40:08;;;;;;;5.33;4.93;;;;;;;1.06;65.43;100707.81;457612;114;922547;-81
2022/12/14 04:41:15;;;;;;;4.32;4.10;;;;;;;1.08;65.32;100708.52;457135;115;922772;-80
2022/12/14 04:42:21;;;;;;;4.98;4.62;;;;;;;1.09;65.19;100709.36;456727;114;922481;-78
2022/12/14 04:43:28;;;;;;;4.67;4.37;;;;;;;1.09;65.07;100709.36;457614;115;922516;-78
2022/12/14 04:44:38;;;;;;;4.69;4.39;;;;;;;1.09;65.09;100720.95;457646;114;922487;-78
2022/12/14 04:45:56;;;;;;;4.98;4.68;;;;;;;1.09;65.24;100712.90;457664;116;922180;-80
2022/12/14 04:47:01;;;;;;;5.53;5.16;;;;;;;1.11;65.20;100718.94;457659;116;922523;-81
2022/12/14 04:48:09;;;;;;;4.79;4.49;;;;;;;1.12;65.26;100728.69;457680;116;922357;-80
2022/12/14 04:49:21;;;;;;;5.20;4.90;;;;;;;1.14;65.33;100723.18;457120;115;922871;-79
2022/12/14 04:50:31;;;;;;;5.48;5.08;;;;;;;1.16;65.41;100730.07;457445;115;922736;-79
2022/12/14 04:51:50;;;;;;;4.93;4.63;;;;;;;1.21;65.59;100732.33;457665;116;922527;-83
2022/12/14 04:53:00;;;;;;;5.34;4.92;;;;;;;1.24;65.49;100735.55;457644;115;922473;-78
2022/12/14 04:54:09;;;;;;;5.06;4.71;;;;;;;1.27;65.32;100736.25;457474;115;923015;-81
2022/12/14 04:55:28;;;;;;;4.74;4.44;;;;;;;1.29;65.39;100742.30;457524;114;922441;-81
2022/12/14 04:56:35;;;;;;;5.86;5.37;;;;;;;1.31;65.36;100743.00;456857;115;922767;-79
2022/12/14 04:57:59;;;;;;;5.22;4.82;;;;;;;1.33;65.51;100744.53;457069;115;922834;-83
2022/12/14 04:59:03;;;;;;;5.04;4.74;;;;;;;1.36;65.42;100749.62;457492;114;923022;-81
2022/12/14 05:00:08;;;;;;;4.72;4.42;;;;;;;1.39;65.31;100751.14;457641;114;922314;-79
2022/12/14 05:01:26;;;;;;;5.27;4.96;;;;;;;1.39;65.22;100754.67;457616;116;922435;-79
2022/12/14 05:03:08;;;;;;;5.09;4.77;;;;;;;1.40;65.03;100756.36;456850;115;922491;-82
2022/12/14 05:04:30;;;;;;;4.93;4.61;;;;;;;1.39;64.77;100757.36;457555;116;922509;-82
2022/12/14 05:05:43;;;;;;;5.41;5.01;;;;;;;1.37;64.84;100754.00;456747;115;922862;-79
2022/12/14 05:07:11;;;;;;;4.87;4.57;;;;;;;1.36;64.90;100743.39;457536;115;922961;-80
2022/12/14 05:08:21;;;;;;;4.61;4.31;;;;;;;1.35;64.66;100745.23;457228;115;922412;-82
2022/12/14 05:09:37;;;;;;;4.42;4.17;;;;;;;1.32;64.66;100737.49;456931;115;922562;-78
2022/12/14 05:10:47;;;;;;;4.34;4.04;;;;;;;1.30;64.45;100728.73;457431;115;922751;-81
2022/12/14 05:11:54;;;;;;;5.73;4.80;;;;;;;1.28;64.41;100741.45;457533;116;922554;-82
2022/12/14 05:13:10;;;;;;;4.39;4.09;;;;;;;1.25;64.31;100734.56;457160;115;922348;-80
2022/12/14 05:14:25;;;;;;;4.65;4.35;;;;;;;1.22;64.31;100737.53;457540;116;922507;-79
2022/12/14 05:15:33;;;;;;;4.47;4.17;;;;;;;1.20;64.23;100736.01;457243;115;922336;-79
2022/12/14 05:16:36;;;;;;;4.67;4.37;;;;;;;1.16;64.18;100745.34;457494;115;922244;-77
2022/12/14 05:17:41;;;;;;;4.60;4.31;;;;;;;1.13;64.19;100753.70;457425;116;922924;-77
2022/12/14 05:18:44;;;;;;;4.79;4.49;;;;;;;1.09;64.11;100749.64;457349;116;922499;-78
2022/12/14 05:19:49;;;;;;;4.99;4.64;;;;;;;1.07;64.14;100756.98;457524;114;922727;-76
2022/12/14 05:20:52;;;;;;;4.36;4.09;;;;;;;1.04;64.23;100758.16;457338;116;922505;-76
2022/12/14 05:21:56;;;;;;;4.88;4.54;;;;;;;1.02;64.13;100761.97;457473;116;923050;-78
2022/12/14 05:22:59;;;;;;;4.78;4.48;;;;;;;0.99;64.05;100768.50;457778;116;922464;-78
2022/12/14 05:24:03;;;;;;;4.76;4.46;;;;;;;0.96;64.13;100759.88;458780;115;922097;-78
2022/12/14 05:25:06;;;;;;;4.61;4.31;;;;;;;0.95;64.25;100782.34;458746;113;922006;-77
2022/12/14 05:26:10;;;;;;;4.77;4.47;;;;;;;0.92;64.24;100783.49;458690;113;922153;-77
2022/12/14 05:27:13;;;;;;;5.03;4.66;;;;;;;0.90;64.31;100785.47;458837;112;921897;-77
2022/12/14 05:28:16;;;;;;;5.14;4.78;;;;;;;0.89;64.43;100794.51;458835;111;922788;-76
2022/12/14 05:29:19;;;;;;;5.51;5.14;;;;;;;0.89;64.51;100802.56;458833;112;922140;-76
2022/12/14 05:30:22;;;;;;;5.62;5.26;;;;;;;0.89;64.53;100807.93;458732;115;922051;-77
2022/12/14 05:31:25;;;;;;;5.72;5.32;;;;;;;0.90;64.61;100798.89;458787;115;922278;-78
2022/12/14 05:32:29;;;;;;;5.36;5.03;;;;;;;0.92;64.68;100798.75;458691;112;922117;-78
2022/12/14 05:33:32;;;;;;;5.55;5.16;;;;;;;0.95;64.81;100801.12;458744;115;922289;-77